createdAt,value
2023-01-07T00:01:45.959Z,97788.78
2023-01-07T00:04:31.630Z,97788.38
2023-01-07T00:07:16.945Z,97784.72
2023-01-07T00:10:02.228Z,97772.97
2023-01-07T00:12:47.552Z,97787.59
2023-01-07T00:15:32.842Z,97787.41
2023-01-07T00:18:18.251Z,97788.00
2023-01-07T00:21:07.627Z,97789.84
2023-01-07T00:23:59.079Z,97780.66
2023-01-07T00:26:44.232Z,97782.50
2023-01-07T00:29:29.613Z,97785.53
2023-01-07T00:32:15.064Z,97788.38
2023-01-07T00:35:00.414Z,97783.09
2023-01-07T00:37:51.635Z,97782.31
2023-01-07T00:40:37.791Z,97787.78
2023-01-07T00:43:23.283Z,97789.59
2023-01-07T00:46:10.623Z,97781.47
2023-01-07T00:48:56.499Z,97787.16
2023-01-07T00:51:42.057Z,97785.53
2023-01-07T00:54:27.433Z,97781.25
2023-01-07T00:57:13.944Z,97777.81
2023-01-07T00:59:59.277Z,97784.09
2023-01-07T01:02:45.452Z,97781.47
2023-01-07T01:05:31.850Z,97789.59
2023-01-07T01:08:18.521Z,97792.41
2023-01-07T01:11:06.211Z,97789.97
2023-01-07T01:13:51.624Z,97788.34
2023-01-07T01:16:40.250Z,97790.19
2023-01-07T01:19:25.881Z,97788.75
2023-01-07T01:22:11.435Z,97781.03
2023-01-07T01:24:56.856Z,97777.78
2023-01-07T01:27:42.028Z,97775.34
2023-01-07T01:30:27.646Z,97774.53
2023-01-07T01:33:15.204Z,97773.09
2023-01-07T01:36:10.689Z,97780.22
2023-01-07T01:38:57.412Z,97775.75
2023-01-07T01:41:45.080Z,97779.38
2023-01-07T01:44:35.001Z,97770.88
2023-01-07T01:47:32.344Z,97764.56
2023-01-07T01:50:30.031Z,97759.28
2023-01-07T01:53:22.328Z,97746.91
2023-01-07T01:56:12.936Z,97746.50
2023-01-07T01:59:14.656Z,97744.06
2023-01-07T02:02:01.363Z,97740.03
2023-01-07T02:04:47.056Z,97733.53
2023-01-07T02:07:32.505Z,97730.50
2023-01-07T02:10:21.388Z,97729.47
2023-01-07T02:13:45.811Z,97726.84
2023-01-07T02:16:40.479Z,97722.56
2023-01-07T02:19:59.513Z,97725.41
2023-01-07T02:23:07.045Z,97723.19
2023-01-07T02:26:21.795Z,97721.38
2023-01-07T02:29:16.254Z,97712.41
2023-01-07T02:32:04.933Z,97714.88
2023-01-07T02:35:03.470Z,97705.97
2023-01-07T02:38:21.126Z,97701.69
2023-01-07T02:41:29.061Z,97701.88
2023-01-07T02:44:24.345Z,97701.06
2023-01-07T02:47:29.644Z,97692.53
2023-01-07T02:50:18.006Z,97693.34
2023-01-07T02:53:03.842Z,97690.91
2023-01-07T02:56:01.459Z,97687.47
2023-01-07T02:59:06.116Z,97670.19
2023-01-07T03:02:14.039Z,97675.88
2023-01-07T03:05:08.295Z,97664.09
2023-01-07T03:08:12.326Z,97662.69
2023-01-07T03:11:02.036Z,97662.88
2023-01-07T03:14:00.140Z,97667.53
2023-01-07T03:16:55.289Z,97672.19
2023-01-07T03:19:45.065Z,97670.78
2023-01-07T03:22:34.066Z,97670.56
2023-01-07T03:25:21.900Z,97668.94
2023-01-07T03:28:12.204Z,97670.34
2023-01-07T03:31:00.470Z,97672.16
2023-01-07T03:33:54.548Z,97684.53
2023-01-07T03:36:44.720Z,97672.16
2023-01-07T03:39:33.123Z,97679.81
2023-01-07T03:42:40.788Z,97679.38
2023-01-07T03:45:35.288Z,97680.59
2023-01-07T03:48:21.027Z,97676.53
2023-01-07T03:51:08.010Z,97676.75
2023-01-07T03:53:53.448Z,97671.69
2023-01-07T03:56:38.853Z,97660.31
2023-01-07T03:59:24.125Z,97653.81
2023-01-07T04:02:11.158Z,97646.28
2023-01-07T04:04:57.063Z,97644.66
2023-01-07T04:07:42.837Z,97657.03
2023-01-07T04:10:28.085Z,97646.47
2023-01-07T04:13:13.493Z,97646.47
2023-01-07T04:16:01.871Z,97641.22
2023-01-07T04:18:47.678Z,97637.94
2023-01-07T04:21:33.435Z,97636.34
2023-01-07T04:24:20.383Z,97637.94
2023-01-07T04:27:05.737Z,97634.53
2023-01-07T04:29:51.032Z,97635.53
2023-01-07T04:32:36.255Z,97633.28
2023-01-07T04:35:21.579Z,97625.56
2023-01-07T04:38:06.954Z,97633.69
2023-01-07T04:40:52.290Z,97624.97
2023-01-07T04:43:38.406Z,97620.91
2023-01-07T04:46:25.707Z,97620.91
2023-01-07T04:49:11.854Z,97616.66
2023-01-07T04:51:57.840Z,97620.09
2023-01-07T04:54:43.450Z,97621.91
2023-01-07T04:57:28.874Z,97623.72
2023-01-07T05:00:14.630Z,97622.91
2023-01-07T05:03:01.779Z,97613.19
2023-01-07T05:05:47.452Z,97615.22
2023-01-07T05:08:33.876Z,97613.97
2023-01-07T05:11:22.075Z,97616.81
2023-01-07T05:14:12.549Z,97617.81
2023-01-07T05:16:58.551Z,97622.28
2023-01-07T05:19:46.760Z,97609.91
2023-01-07T05:22:32.853Z,97606.28
2023-01-07T05:25:18.177Z,97602.00
2023-01-07T05:28:04.183Z,97602.22
2023-01-07T05:30:52.634Z,97607.69
2023-01-07T05:33:39.248Z,97600.56
2023-01-07T05:36:25.315Z,97596.31
2023-01-07T05:39:11.720Z,97592.06
2023-01-07T05:41:57.269Z,97592.88
2023-01-07T05:44:43.901Z,97592.88
2023-01-07T05:47:29.330Z,97594.50
2023-01-07T05:50:14.818Z,97581.34
2023-01-07T05:53:00.231Z,97592.88
2023-01-07T05:55:46.192Z,97590.41
2023-01-07T05:58:31.617Z,97585.16
2023-01-07T06:01:17.153Z,97594.88
2023-01-07T06:04:02.434Z,97588.41
2023-01-07T06:06:47.718Z,97587.56
2023-01-07T06:09:33.082Z,97586.78
2023-01-07T06:12:18.428Z,97593.03
2023-01-07T06:15:04.347Z,97593.25
2023-01-07T06:17:49.630Z,97588.13
2023-01-07T06:20:35.068Z,97588.31
2023-01-07T06:23:20.678Z,97594.44
2023-01-07T06:26:06.281Z,97592.16
2023-01-07T06:28:52.441Z,97587.91
2023-01-07T06:31:38.006Z,97582.84
2023-01-07T06:34:23.792Z,97582.03
2023-01-07T06:37:09.853Z,97581.41
2023-01-07T06:39:55.190Z,97584.25
2023-01-07T06:42:40.752Z,97581.78
2023-01-07T06:45:26.076Z,97577.56
2023-01-07T06:48:11.479Z,97583.19
2023-01-07T06:50:56.856Z,97583.19
2023-01-07T06:53:42.145Z,97579.94
2023-01-07T06:56:27.552Z,97583.41
2023-01-07T06:59:12.942Z,97575.69
2023-01-07T07:01:58.419Z,97575.69
2023-01-07T07:04:44.194Z,97568.19
2023-01-07T07:07:29.512Z,97567.56
2023-01-07T07:10:15.199Z,97569.59
2023-01-07T07:13:01.794Z,97571.19
2023-01-07T07:15:48.323Z,97567.34
2023-01-07T07:18:33.804Z,97564.47
2023-01-07T07:21:19.346Z,97569.13
2023-01-07T07:24:05.242Z,97569.31
2023-01-07T07:26:51.121Z,97568.69
2023-01-07T07:29:36.477Z,97565.84
2023-01-07T07:32:23.009Z,97563.22
2023-01-07T07:35:09.156Z,97561.41
2023-01-07T07:37:55.316Z,97557.97
2023-01-07T07:40:40.814Z,97564.44
2023-01-07T07:43:26.580Z,97555.09
2023-01-07T07:46:12.165Z,97552.47
2023-01-07T07:48:57.768Z,97552.09
2023-01-07T07:51:43.604Z,97553.72
2023-01-07T07:54:29.412Z,97550.69
2023-01-07T07:57:14.825Z,97541.78
2023-01-07T08:00:00.218Z,97542.41
2023-01-07T08:02:45.424Z,97532.47
2023-01-07T08:05:31.319Z,97536.53
2023-01-07T08:08:16.994Z,97533.53
2023-01-07T08:11:04.066Z,97524.41
2023-01-07T08:13:49.465Z,97520.56
2023-01-07T08:16:34.931Z,97515.72
2023-01-07T08:19:20.397Z,97508.47
2023-01-07T08:22:06.311Z,97513.31
2023-01-07T08:24:52.097Z,97501.19
2023-01-07T08:27:37.722Z,97516.19
2023-01-07T08:30:23.757Z,97513.81
2023-01-07T08:33:09.632Z,97515.47
2023-01-07T08:35:55.346Z,97516.28
2023-01-07T08:38:40.667Z,97508.38
2023-01-07T08:41:26.025Z,97509.00
2023-01-07T08:44:11.251Z,97507.00
2023-01-07T08:46:56.669Z,97508.81
2023-01-07T08:49:42.237Z,97502.16
2023-01-07T08:52:28.291Z,97494.66
2023-01-07T08:55:14.296Z,97492.41
2023-01-07T08:57:59.812Z,97500.75
2023-01-07T09:00:45.218Z,97497.69
2023-01-07T09:03:30.850Z,97492.81
2023-01-07T09:06:16.672Z,97495.06
2023-01-07T09:09:03.066Z,97493.84
2023-01-07T09:11:50.223Z,97483.47
2023-01-07T09:14:36.014Z,97486.31
2023-01-07T09:17:24.149Z,97492.78
2023-01-07T09:20:10.497Z,97487.72
2023-01-07T09:22:56.195Z,97494.22
2023-01-07T09:25:42.593Z,97490.97
2023-01-07T09:28:30.065Z,97491.53
2023-01-07T09:31:15.575Z,97499.06
2023-01-07T09:34:02.178Z,97502.31
2023-01-07T09:36:48.448Z,97498.47
2023-01-07T09:39:34.217Z,97494.59
2023-01-07T09:42:57.061Z,97501.28
2023-01-07T09:46:11.614Z,97497.00
2023-01-07T09:49:03.817Z,97501.88
2023-01-07T09:51:57.410Z,97491.94
2023-01-07T09:54:48.534Z,97497.16
2023-01-07T09:57:34.491Z,97500.00
2023-01-07T10:00:24.795Z,97493.09
2023-01-07T10:03:28.806Z,97482.28
2023-01-07T10:06:31.700Z,97480.63
2023-01-07T10:09:36.370Z,97474.31
2023-01-07T10:12:45.433Z,97476.13
2023-01-07T10:15:42.750Z,97468.38
2023-01-07T10:19:14.296Z,97464.88
2023-01-07T10:22:23.209Z,97459.56
2023-01-07T10:25:22.757Z,97445.69
2023-01-07T10:28:17.937Z,97440.81
2023-01-07T10:31:06.697Z,97441.56
2023-01-07T10:33:53.094Z,97442.34
2023-01-07T10:36:44.135Z,97436.19
2023-01-07T10:40:08.894Z,97433.44
2023-01-07T10:43:12.768Z,97418.13
2023-01-07T10:46:33.402Z,97412.91
2023-01-07T10:49:36.220Z,97420.34
2023-01-07T10:52:40.306Z,97405.38
2023-01-07T10:56:07.646Z,97406.84
2023-01-07T10:58:53.412Z,97395.09
2023-01-07T11:01:49.024Z,97383.56
2023-01-07T11:04:34.255Z,97383.38
2023-01-07T11:07:40.463Z,97376.50
2023-01-07T11:10:34.286Z,97379.44
2023-01-07T11:13:25.994Z,97371.97
2023-01-07T11:16:18.440Z,97366.56
2023-01-07T11:19:12.574Z,97362.88
2023-01-07T11:21:58.413Z,97342.50
2023-01-07T11:24:44.026Z,97342.16
2023-01-07T11:27:33.646Z,97340.06
2023-01-07T11:30:27.970Z,97329.03
2023-01-07T11:34:03.107Z,97326.97
2023-01-07T11:36:50.827Z,97320.41
2023-01-07T11:39:36.638Z,97313.72
2023-01-07T11:42:40.603Z,97309.69
2023-01-07T11:45:32.148Z,97309.88
2023-01-07T11:48:29.503Z,97308.63
2023-01-07T11:51:16.427Z,97303.91
2023-01-07T11:54:01.820Z,97285.94
2023-01-07T11:56:47.116Z,97285.13
2023-01-07T11:59:32.615Z,97277.41
2023-01-07T12:02:26.709Z,97273.97
2023-01-07T12:05:23.481Z,97276.38
2023-01-07T12:08:21.215Z,97269.44
2023-01-07T12:11:10.646Z,97260.13
2023-01-07T12:13:56.129Z,97273.81
2023-01-07T12:16:41.861Z,97263.44
2023-01-07T12:19:52.273Z,97270.00
2023-01-07T12:22:58.428Z,97261.94
2023-01-07T12:25:56.767Z,97257.09
2023-01-07T12:28:58.449Z,97251.44
2023-01-07T12:32:08.414Z,97241.75
2023-01-07T12:35:23.078Z,97237.72
2023-01-07T12:38:17.646Z,97232.44
2023-01-07T12:41:11.717Z,97230.81
2023-01-07T12:44:02.893Z,97222.31
2023-01-07T12:47:32.431Z,97227.59
2023-01-07T12:50:23.031Z,97217.22
2023-01-07T12:53:36.492Z,97222.75
2023-01-07T12:56:37.220Z,97220.31
2023-01-07T12:59:45.633Z,97212.63
2023-01-07T13:02:48.457Z,97203.28
2023-01-07T13:05:34.061Z,97200.41
2023-01-07T13:08:40.814Z,97189.00
2023-01-07T13:12:41.168Z,97192.34
2023-01-07T13:15:36.128Z,97181.59
2023-01-07T13:18:21.663Z,97184.13
2023-01-07T13:21:08.828Z,97177.69
2023-01-07T13:24:14.500Z,97174.91
2023-01-07T13:27:14.174Z,97171.09
2023-01-07T13:30:26.792Z,97173.19
2023-01-07T13:34:02.604Z,97167.75
2023-01-07T13:37:06.317Z,97166.13
2023-01-07T13:40:27.175Z,97163.94
2023-01-07T13:43:39.098Z,97163.47
2023-01-07T13:46:36.808Z,97160.63
2023-01-07T13:49:33.579Z,97159.13
2023-01-07T13:52:22.052Z,97158.38
2023-01-07T13:55:29.827Z,97159.25
2023-01-07T13:58:30.757Z,97160.97
2023-01-07T14:01:20.084Z,97165.72
2023-01-07T14:04:08.679Z,97157.31
2023-01-07T14:06:55.015Z,97164.19
2023-01-07T14:09:41.509Z,97165.75
2023-01-07T14:12:44.024Z,97156.25
2023-01-07T14:15:43.851Z,97157.38
2023-01-07T14:18:47.998Z,97154.97
2023-01-07T14:21:48.322Z,97156.56
2023-01-07T14:24:42.951Z,97153.28
2023-01-07T14:27:47.516Z,97151.09
2023-01-07T14:30:42.559Z,97147.13
2023-01-07T14:33:35.237Z,97148.78
2023-01-07T14:36:21.833Z,97154.13
2023-01-07T14:39:36.985Z,97151.25
2023-01-07T14:42:27.081Z,97142.94
2023-01-07T14:45:40.797Z,97140.75
2023-01-07T14:48:31.909Z,97133.25
2023-01-07T14:51:36.064Z,97121.25
2023-01-07T14:54:30.965Z,97123.72
2023-01-07T14:57:40.886Z,97113.22
2023-01-07T15:00:35.425Z,97109.13
2023-01-07T15:03:43.006Z,97115.94
2023-01-07T15:06:36.600Z,97106.34
2023-01-07T15:09:45.443Z,97106.88
2023-01-07T15:12:51.867Z,97108.66
2023-01-07T15:15:58.531Z,97101.91
2023-01-07T15:18:51.138Z,97103.72
2023-01-07T15:22:02.911Z,97097.63
2023-01-07T15:24:48.479Z,97111.81
2023-01-07T15:27:53.615Z,97104.06
2023-01-07T15:31:13.619Z,97112.34
2023-01-07T15:34:10.942Z,97111.69
2023-01-07T15:36:57.473Z,97104.06
2023-01-07T15:39:52.132Z,97104.16
2023-01-07T15:42:45.093Z,97108.50
2023-01-07T15:45:30.823Z,97111.00
2023-01-07T15:48:16.342Z,97106.19
2023-01-07T15:51:01.643Z,97112.72
2023-01-07T15:53:55.003Z,97111.34
2023-01-07T15:56:40.264Z,97107.69
2023-01-07T15:59:33.864Z,97108.69
2023-01-07T16:02:19.281Z,97108.06
2023-01-07T16:05:06.002Z,97108.25
2023-01-07T16:08:00.698Z,97104.59
2023-01-07T16:11:07.211Z,97103.78
2023-01-07T16:14:00.133Z,97103.53
2023-01-07T16:16:45.667Z,97098.88
2023-01-07T16:19:31.306Z,97091.16
2023-01-07T16:22:21.164Z,97088.47
2023-01-07T16:25:14.033Z,97087.22
2023-01-07T16:28:00.261Z,97097.66
2023-01-07T16:30:47.222Z,97098.38
2023-01-07T16:33:34.398Z,97089.81
2023-01-07T16:36:27.120Z,97092.38
2023-01-07T16:39:22.712Z,97091.06
2023-01-07T16:42:23.210Z,97091.03
2023-01-07T16:45:22.786Z,97091.38
2023-01-07T16:48:23.934Z,97094.13
2023-01-07T16:51:34.196Z,97085.38
2023-01-07T16:54:34.320Z,97081.09
2023-01-07T16:57:31.967Z,97093.50
2023-01-07T17:00:20.264Z,97098.69
2023-01-07T17:03:05.517Z,97085.72
2023-01-07T17:06:01.473Z,97088.88
2023-01-07T17:08:52.378Z,97090.03
2023-01-07T17:11:39.941Z,97085.44
2023-01-07T17:14:34.723Z,97093.44
2023-01-07T17:17:27.513Z,97100.03
2023-01-07T17:20:56.474Z,97100.22
2023-01-07T17:23:42.823Z,97101.84
2023-01-07T17:26:29.447Z,97101.84
2023-01-07T17:29:37.693Z,97096.78
2023-01-07T17:32:24.419Z,97102.19
2023-01-07T17:35:18.861Z,97086.88
2023-01-07T17:38:12.150Z,97087.22
2023-01-07T17:40:57.608Z,97092.47
2023-01-07T17:43:42.771Z,97097.09
2023-01-07T17:46:30.086Z,97095.81
2023-01-07T17:49:15.524Z,97103.84
2023-01-07T17:52:00.777Z,97104.41
2023-01-07T17:54:46.065Z,97105.13
2023-01-07T17:57:31.322Z,97103.88
2023-01-07T18:00:20.325Z,97112.09
2023-01-07T18:03:05.672Z,97100.56
2023-01-07T18:05:51.012Z,97102.72
2023-01-07T18:08:36.480Z,97094.78
2023-01-07T18:11:43.536Z,97100.53
2023-01-07T18:14:29.014Z,97103.88
2023-01-07T18:17:14.523Z,97103.81
2023-01-07T18:19:59.994Z,97104.34
2023-01-07T18:22:45.299Z,97108.47
2023-01-07T18:25:31.938Z,97116.03
2023-01-07T18:28:17.942Z,97117.59
2023-01-07T18:31:03.525Z,97114.66
2023-01-07T18:33:49.793Z,97101.31
2023-01-07T18:36:35.427Z,97105.31
2023-01-07T18:39:21.121Z,97101.41
2023-01-07T18:42:06.849Z,97098.34
2023-01-07T18:44:52.192Z,97095.63
2023-01-07T18:47:37.460Z,97086.22
2023-01-07T18:50:22.811Z,97086.94
2023-01-07T18:53:09.599Z,97088.66
2023-01-07T18:56:00.143Z,97084.91
2023-01-07T18:58:45.821Z,97087.78
2023-01-07T19:01:31.323Z,97088.28
2023-01-07T19:04:17.202Z,97083.59
2023-01-07T19:07:03.652Z,97078.09
2023-01-07T19:09:49.246Z,97076.81
2023-01-07T19:12:34.723Z,97076.53
2023-01-07T19:15:20.079Z,97072.63
2023-01-07T19:18:05.762Z,97069.72
2023-01-07T19:20:51.376Z,97073.69
2023-01-07T19:23:36.686Z,97062.91
2023-01-07T19:26:22.262Z,97068.50
2023-01-07T19:29:07.880Z,97062.63
2023-01-07T19:31:53.410Z,97063.63
2023-01-07T19:34:39.270Z,97060.53
2023-01-07T19:37:24.781Z,97056.47
2023-01-07T19:40:12.511Z,97059.97
2023-01-07T19:42:57.980Z,97054.78
2023-01-07T19:45:53.534Z,97059.91
2023-01-07T19:48:39.175Z,97053.91
2023-01-07T19:51:24.553Z,97054.41
2023-01-07T19:54:14.993Z,97047.56
2023-01-07T19:57:00.163Z,97044.34
2023-01-07T19:59:45.578Z,97043.34
2023-01-07T20:02:31.052Z,97039.13
2023-01-07T20:05:16.883Z,97037.81
2023-01-07T20:08:02.416Z,97033.28
2023-01-07T20:10:55.795Z,97028.25
2023-01-07T20:13:44.347Z,97031.19
2023-01-07T20:16:29.547Z,97028.94
2023-01-07T20:19:14.853Z,97035.00
2023-01-07T20:22:00.156Z,97028.84
2023-01-07T20:24:46.796Z,97028.19
2023-01-07T20:27:33.187Z,97027.38
2023-01-07T20:30:18.634Z,97017.09
2023-01-07T20:33:04.156Z,97020.69
2023-01-07T20:35:49.681Z,97017.28
2023-01-07T20:38:35.633Z,97018.72
2023-01-07T20:41:23.895Z,97017.09
2023-01-07T20:44:11.493Z,97022.31
2023-01-07T20:46:57.125Z,97013.88
2023-01-07T20:49:42.489Z,97015.16
2023-01-07T20:52:27.759Z,97021.34
2023-01-07T20:55:13.268Z,97016.97
2023-01-07T20:57:58.588Z,97025.75
2023-01-07T21:00:45.340Z,97025.09
2023-01-07T21:03:31.431Z,97018.78
2023-01-07T21:06:18.927Z,97027.59
2023-01-07T21:09:04.351Z,97015.22
2023-01-07T21:11:49.760Z,97019.28
2023-01-07T21:14:35.406Z,97018.31
2023-01-07T21:17:20.947Z,97017.03
2023-01-07T21:20:07.942Z,97014.63
2023-01-07T21:22:53.520Z,97006.16
2023-01-07T21:25:38.986Z,97001.25
2023-01-07T21:28:24.218Z,97007.47
2023-01-07T21:31:11.644Z,97001.59
2023-01-07T21:33:58.166Z,96995.75
2023-01-07T21:36:43.619Z,96987.28
2023-01-07T21:39:28.985Z,96987.44
2023-01-07T21:42:14.774Z,96988.41
2023-01-07T21:45:00.423Z,97000.63
2023-01-07T21:47:45.899Z,96990.22
2023-01-07T21:50:31.248Z,96997.38
2023-01-07T21:53:16.605Z,96995.75
2023-01-07T21:56:10.345Z,96995.91
2023-01-07T21:58:56.106Z,96990.06
2023-01-07T22:01:41.506Z,96995.44
2023-01-07T22:04:27.136Z,96983.72
2023-01-07T22:07:18.034Z,96973.31
2023-01-07T22:10:04.317Z,96985.19
2023-01-07T22:12:49.900Z,96992.81
2023-01-07T22:15:35.377Z,96982.41
2023-01-07T22:18:20.708Z,96980.31
2023-01-07T22:21:06.073Z,96979.81
2023-01-07T22:23:52.169Z,96973.00
2023-01-07T22:26:38.341Z,96969.75
2023-01-07T22:29:23.773Z,96984.56
2023-01-07T22:32:09.219Z,96992.50
2023-01-07T22:34:54.741Z,96998.69
2023-01-07T22:37:40.538Z,96991.72
2023-01-07T22:40:26.452Z,96993.47
2023-01-07T22:43:15.251Z,96977.25
2023-01-07T22:46:10.105Z,96988.44
2023-01-07T22:48:55.381Z,96982.09
2023-01-07T22:51:47.971Z,96975.63
2023-01-07T22:54:34.338Z,96982.44
2023-01-07T22:57:20.998Z,96989.59
2023-01-07T23:00:10.125Z,96992.84
2023-01-07T23:02:55.407Z,96988.13
2023-01-07T23:05:40.815Z,96987.97
2023-01-07T23:08:26.008Z,96980.66
2023-01-07T23:11:11.458Z,96973.97
2023-01-07T23:13:57.077Z,96971.22
2023-01-07T23:16:42.397Z,96962.91
2023-01-07T23:19:27.824Z,96957.41
2023-01-07T23:22:13.440Z,96956.91
2023-01-07T23:24:58.863Z,96940.81
2023-01-07T23:27:44.343Z,96939.97
2023-01-07T23:30:30.049Z,96943.56
2023-01-07T23:33:15.844Z,96938.88
2023-01-07T23:36:06.015Z,96933.81
2023-01-07T23:38:52.057Z,96927.31
2023-01-07T23:41:37.556Z,96934.81
2023-01-07T23:44:23.219Z,96916.78
2023-01-07T23:47:08.808Z,96916.78
2023-01-07T23:49:54.600Z,96911.22
2023-01-07T23:52:39.885Z,96913.50
2023-01-07T23:55:25.091Z,96922.59
2023-01-07T23:58:10.461Z,96915.94
